createdAt,value
2018-08-19T00:00:09.843Z,16.10
2018-08-19T00:02:35.842Z,16.10
2018-08-19T00:05:01.800Z,16.10
2018-08-19T00:07:27.798Z,16.10
2018-08-19T00:09:53.787Z,16.00
2018-08-19T00:12:19.767Z,16.10
2018-08-19T00:14:45.747Z,16.10
2018-08-19T00:17:11.868Z,16.10
2018-08-19T00:19:37.852Z,16.00
2018-08-19T00:22:03.845Z,16.00
2018-08-19T00:24:29.972Z,16.00
2018-08-19T00:26:56.034Z,16.10
2018-08-19T00:29:22.726Z,16.20
2018-08-19T00:31:48.696Z,16.20
2018-08-19T00:34:15.451Z,16.30
2018-08-19T00:36:41.428Z,16.30
2018-08-19T00:39:07.418Z,16.30
2018-08-19T00:41:33.376Z,16.40
2018-08-19T00:43:59.360Z,16.40
2018-08-19T00:46:25.354Z,16.50
2018-08-19T00:48:51.381Z,16.50
2018-08-19T00:51:17.360Z,16.60
2018-08-19T00:53:43.337Z,16.60
2018-08-19T00:56:09.327Z,16.70
2018-08-19T00:58:36.034Z,16.70
2018-08-19T01:01:02.009Z,16.70
2018-08-19T01:03:28.691Z,16.70
2018-08-19T01:05:54.661Z,16.70
2018-08-19T01:08:21.368Z,16.80
2018-08-19T01:10:47.354Z,16.80
2018-08-19T01:13:14.051Z,16.80
2018-08-19T01:15:40.037Z,16.80
2018-08-19T01:18:06.034Z,16.80
2018-08-19T01:20:31.990Z,16.80
2018-08-19T01:22:57.976Z,16.80
2018-08-19T01:25:23.934Z,16.80
2018-08-19T01:27:49.922Z,16.90
2018-08-19T01:30:15.906Z,16.90
2018-08-19T01:32:41.878Z,16.80
2018-08-19T01:35:07.828Z,16.80
2018-08-19T01:37:34.566Z,17.00
2018-08-19T01:40:00.546Z,16.90
2018-08-19T01:42:27.287Z,17.00
2018-08-19T01:44:53.994Z,17.10
2018-08-19T01:47:19.945Z,17.00
2018-08-19T01:49:46.656Z,17.10
2018-08-19T01:52:12.616Z,17.10
2018-08-19T01:54:39.321Z,17.10
2018-08-19T01:57:05.259Z,17.00
2018-08-19T01:59:31.206Z,17.10
2018-08-19T02:01:57.184Z,17.10
2018-08-19T02:04:23.141Z,17.10
2018-08-19T02:06:49.867Z,17.20
2018-08-19T02:09:16.582Z,17.20
2018-08-19T02:11:42.575Z,17.20
2018-08-19T02:14:08.548Z,17.30
2018-08-19T02:16:34.558Z,17.20
2018-08-19T02:19:00.539Z,17.20
2018-08-19T02:21:26.510Z,17.10
2018-08-19T02:23:52.483Z,17.30
2018-08-19T02:26:18.519Z,17.30
2018-08-19T02:28:44.496Z,17.30
2018-08-19T02:31:11.251Z,17.30
2018-08-19T02:33:37.233Z,17.30
2018-08-19T02:36:03.241Z,17.30
2018-08-19T02:38:29.211Z,17.30
2018-08-19T02:40:55.957Z,17.30
2018-08-19T02:43:22.668Z,17.30
2018-08-19T02:45:48.634Z,17.30
2018-08-19T02:48:14.628Z,17.30
2018-08-19T02:50:40.601Z,17.30
2018-08-19T02:53:06.596Z,17.30
2018-08-19T02:55:32.573Z,17.30
2018-08-19T02:57:58.577Z,17.30
2018-08-19T03:00:24.567Z,17.30
2018-08-19T03:02:50.546Z,17.30
2018-08-19T03:05:16.520Z,17.30
2018-08-19T03:07:42.519Z,17.30
2018-08-19T03:10:09.240Z,17.30
2018-08-19T03:12:35.237Z,17.20
2018-08-19T03:15:01.272Z,17.30
2018-08-19T03:17:27.211Z,17.30
2018-08-19T03:19:53.193Z,17.30
2018-08-19T03:22:19.198Z,17.30
2018-08-19T03:24:45.216Z,17.30
2018-08-19T03:27:11.191Z,17.30
2018-08-19T03:29:37.189Z,17.30
2018-08-19T03:32:03.160Z,17.30
2018-08-19T03:34:29.909Z,17.30
2018-08-19T03:36:56.621Z,17.30
2018-08-19T03:39:22.624Z,17.30
2018-08-19T03:41:49.325Z,17.40
2018-08-19T03:44:16.021Z,17.40
2018-08-19T03:46:42.020Z,17.40
2018-08-19T03:49:07.983Z,17.40
2018-08-19T03:51:33.972Z,17.50
2018-08-19T03:53:59.945Z,17.40
2018-08-19T03:56:26.679Z,17.40
2018-08-19T03:58:52.627Z,17.40
2018-08-19T04:01:18.600Z,17.40
2018-08-19T04:03:44.569Z,17.50
2018-08-19T04:06:10.554Z,17.50
2018-08-19T04:08:37.284Z,17.50
2018-08-19T04:11:03.269Z,17.40
2018-08-19T04:13:29.236Z,17.40
2018-08-19T04:15:55.222Z,17.50
2018-08-19T04:18:21.177Z,17.50
2018-08-19T04:20:47.135Z,17.50
2018-08-19T04:23:13.867Z,17.50
2018-08-19T04:25:40.562Z,17.50
2018-08-19T04:28:06.555Z,17.50
2018-08-19T04:30:32.561Z,17.50
2018-08-19T04:32:59.292Z,17.50
2018-08-19T04:35:25.258Z,17.50
2018-08-19T04:37:51.242Z,17.50
2018-08-19T04:40:17.240Z,17.50
2018-08-19T04:42:43.239Z,17.50
2018-08-19T04:45:09.182Z,17.60
2018-08-19T04:47:35.308Z,17.60
2018-08-19T04:50:01.262Z,17.60
2018-08-19T04:52:28.008Z,17.50
2018-08-19T04:54:54.737Z,17.50
2018-08-19T04:57:20.692Z,17.50
2018-08-19T04:59:46.680Z,17.60
2018-08-19T05:02:12.780Z,17.60
2018-08-19T05:04:38.740Z,17.70
2018-08-19T05:07:05.439Z,17.70
2018-08-19T05:09:31.418Z,17.70
2018-08-19T05:11:57.375Z,17.80
2018-08-19T05:14:23.390Z,17.80
2018-08-19T05:16:49.376Z,17.90
2018-08-19T05:19:16.095Z,17.90
2018-08-19T05:21:42.095Z,17.90
2018-08-19T05:24:08.057Z,17.90
2018-08-19T05:26:34.790Z,18.00
2018-08-19T05:29:00.752Z,18.00
2018-08-19T05:31:26.733Z,18.00
2018-08-19T05:33:52.687Z,18.00
2018-08-19T05:36:18.652Z,18.00
2018-08-19T05:38:44.624Z,18.10
2018-08-19T05:41:10.626Z,18.10
2018-08-19T05:43:37.335Z,18.10
2018-08-19T05:46:03.384Z,18.10
2018-08-19T05:48:29.404Z,18.10
2018-08-19T05:50:55.451Z,18.20
2018-08-19T05:53:21.489Z,18.20
2018-08-19T05:55:47.494Z,18.20
2018-08-19T05:58:14.207Z,18.30
2018-08-19T06:00:40.200Z,18.30
2018-08-19T06:03:06.154Z,18.40
2018-08-19T06:05:32.140Z,18.40
2018-08-19T06:07:58.103Z,18.40
2018-08-19T06:10:24.104Z,18.40
2018-08-19T06:12:50.076Z,18.40
2018-08-19T06:15:16.819Z,18.60
2018-08-19T06:17:43.528Z,18.70
2018-08-19T06:20:09.504Z,18.70
2018-08-19T06:22:35.498Z,18.80
2018-08-19T06:25:02.212Z,19.10
2018-08-19T06:27:28.207Z,19.00
2018-08-19T06:29:54.187Z,19.10
2018-08-19T06:32:20.917Z,19.40
2018-08-19T06:34:47.688Z,19.50
2018-08-19T06:37:14.384Z,19.40
2018-08-19T06:39:40.366Z,19.40
2018-08-19T06:42:06.338Z,19.60
2018-08-19T06:44:33.126Z,19.80
2018-08-19T06:46:59.983Z,19.80
2018-08-19T06:49:26.019Z,19.80
2018-08-19T06:51:51.951Z,19.80
2018-08-19T06:54:17.955Z,20.00
2018-08-19T06:56:43.924Z,20.00
2018-08-19T06:59:09.918Z,20.00
2018-08-19T07:01:36.534Z,19.90
2018-08-19T07:04:02.532Z,20.00
2018-08-19T07:06:28.540Z,20.10
2018-08-19T07:08:55.253Z,20.20
2018-08-19T07:11:21.263Z,20.20
2018-08-19T07:13:47.211Z,20.20
2018-08-19T07:16:13.349Z,20.20
2018-08-19T07:18:40.641Z,20.10
2018-08-19T07:21:07.735Z,20.10
2018-08-19T07:23:33.734Z,20.00
2018-08-19T07:25:59.718Z,20.10
2018-08-19T07:28:25.717Z,20.10
2018-08-19T07:30:52.486Z,20.30
2018-08-19T07:33:18.445Z,20.30
2018-08-19T07:35:44.430Z,20.40
2018-08-19T07:38:10.453Z,20.40
2018-08-19T07:40:36.437Z,20.50
2018-08-19T07:43:02.494Z,20.60
2018-08-19T07:45:28.598Z,20.70
2018-08-19T07:47:55.355Z,20.90
2018-08-19T07:50:21.340Z,20.80
2018-08-19T07:52:47.401Z,20.90
2018-08-19T07:55:13.801Z,21.10
2018-08-19T07:57:43.501Z,21.50
2018-08-19T08:00:09.531Z,21.50
2018-08-19T08:02:36.475Z,21.60
2018-08-19T08:05:02.490Z,21.80
2018-08-19T08:07:28.441Z,22.20
2018-08-19T08:09:54.454Z,22.70
2018-08-19T08:12:20.406Z,23.70
2018-08-19T08:14:47.102Z,24.80
2018-08-19T08:17:13.121Z,24.70
2018-08-19T08:19:39.103Z,25.10
2018-08-19T08:22:05.862Z,26.90
2018-08-19T08:24:31.847Z,26.80
2018-08-19T08:26:58.599Z,26.70
2018-08-19T08:29:25.293Z,25.90
2018-08-19T08:31:51.306Z,25.90
2018-08-19T08:34:17.275Z,26.60
2018-08-19T08:36:44.051Z,27.90
2018-08-19T08:39:10.052Z,27.80
2018-08-19T08:41:36.043Z,28.40
2018-08-19T08:44:02.016Z,28.70
2018-08-19T08:46:27.989Z,28.50
2018-08-19T08:48:53.978Z,28.50
2018-08-19T08:51:27.506Z,26.50
2018-08-19T08:53:53.500Z,26.50
2018-08-19T08:56:19.485Z,26.10
2018-08-19T08:58:46.230Z,26.80
2018-08-19T09:01:12.930Z,27.10
2018-08-19T09:03:38.894Z,27.00
2018-08-19T09:06:05.638Z,28.50
2018-08-19T09:08:32.336Z,29.20
2018-08-19T09:10:58.333Z,29.10
2018-08-19T09:13:24.307Z,29.80
2018-08-19T09:15:51.021Z,28.20
2018-08-19T09:18:16.993Z,28.10
2018-08-19T09:20:43.697Z,27.30
2018-08-19T09:23:10.530Z,26.60
2018-08-19T09:25:36.446Z,26.50
2018-08-19T09:28:02.499Z,25.70
2018-08-19T09:30:28.501Z,26.40
2018-08-19T09:32:55.315Z,28.30
2018-08-19T09:35:21.278Z,28.20
2018-08-19T09:37:47.268Z,27.80
2018-08-19T09:40:13.222Z,27.90
2018-08-19T09:42:39.208Z,28.70
2018-08-19T09:45:05.179Z,28.60
2018-08-19T09:47:31.164Z,29.20
2018-08-19T09:49:57.141Z,29.70
2018-08-19T09:52:23.842Z,28.70
2018-08-19T09:54:49.842Z,28.60
2018-08-19T09:57:15.807Z,27.40
2018-08-19T09:59:42.555Z,28.10
2018-08-19T10:02:09.287Z,27.90
2018-08-19T10:04:36.015Z,27.60
2018-08-19T10:07:02.001Z,27.60
2018-08-19T10:09:27.974Z,27.20
2018-08-19T10:11:57.026Z,26.70
2018-08-19T10:14:22.967Z,26.30
2018-08-19T10:16:49.662Z,25.60
2018-08-19T10:19:16.188Z,25.10
2018-08-19T10:21:42.912Z,24.80
2018-08-19T10:24:08.859Z,24.80
2018-08-19T10:26:34.908Z,24.50
2018-08-19T10:29:00.830Z,24.60
2018-08-19T10:31:26.898Z,25.20
2018-08-19T10:33:52.835Z,25.20
2018-08-19T10:36:19.529Z,25.30
2018-08-19T10:38:45.505Z,25.30
2018-08-19T10:41:12.199Z,25.70
2018-08-19T10:43:38.182Z,25.60
2018-08-19T10:46:04.924Z,25.90
2018-08-19T10:48:31.631Z,26.10
2018-08-19T10:50:57.605Z,26.10
2018-08-19T10:53:23.683Z,26.50
2018-08-19T10:55:49.603Z,26.70
2018-08-19T10:58:15.610Z,26.60
2018-08-19T11:00:42.424Z,26.80
2018-08-19T11:03:08.422Z,26.80
2018-08-19T11:05:34.429Z,26.60
2018-08-19T11:08:00.438Z,26.50
2018-08-19T11:10:27.178Z,26.70
2018-08-19T11:12:53.202Z,26.60
2018-08-19T11:15:19.212Z,26.50
2018-08-19T11:17:45.219Z,26.30
2018-08-19T11:20:11.169Z,26.60
2018-08-19T11:22:37.163Z,26.70
2018-08-19T11:25:03.129Z,26.80
2018-08-19T11:27:29.239Z,26.80
2018-08-19T11:29:55.162Z,27.00
2018-08-19T11:32:21.149Z,27.30
2018-08-19T11:34:47.110Z,27.50
2018-08-19T11:37:13.090Z,27.20
2018-08-19T11:39:39.044Z,27.00
2018-08-19T11:42:05.024Z,26.90
2018-08-19T11:44:31.015Z,26.60
2018-08-19T11:46:57.756Z,26.50
2018-08-19T11:49:23.730Z,26.50
2018-08-19T11:51:49.718Z,26.30
2018-08-19T11:54:15.697Z,26.20
2018-08-19T11:56:42.428Z,26.50
2018-08-19T11:59:08.402Z,26.50
2018-08-19T12:01:34.370Z,26.20
2018-08-19T12:04:00.346Z,25.90
2018-08-19T12:06:26.306Z,25.80
2018-08-19T12:08:52.302Z,25.70
2018-08-19T12:11:18.288Z,25.80
2018-08-19T12:13:45.965Z,26.00
2018-08-19T12:16:12.186Z,25.90
2018-08-19T12:18:38.953Z,25.80
2018-08-19T12:21:04.921Z,25.80
2018-08-19T12:23:30.923Z,25.70
2018-08-19T12:25:56.870Z,25.80
2018-08-19T12:28:22.874Z,25.90
2018-08-19T12:30:50.502Z,26.20
2018-08-19T12:33:16.485Z,26.00
2018-08-19T12:35:42.454Z,26.00
2018-08-19T12:38:08.425Z,25.70
2018-08-19T12:40:34.433Z,25.70
2018-08-19T12:43:00.424Z,25.40
2018-08-19T12:45:26.400Z,25.20
2018-08-19T12:47:53.161Z,25.20
2018-08-19T12:50:19.902Z,25.20
2018-08-19T12:52:46.656Z,25.20
2018-08-19T12:55:12.628Z,25.20
2018-08-19T12:57:38.614Z,25.20
2018-08-19T13:00:04.605Z,25.00
2018-08-19T13:02:30.577Z,24.80
2018-08-19T13:04:56.603Z,25.00
2018-08-19T13:07:22.566Z,24.90
2018-08-19T13:09:48.554Z,25.10
2018-08-19T13:12:14.521Z,25.30
2018-08-19T13:14:40.493Z,25.40
2018-08-19T13:17:06.449Z,25.60
2018-08-19T13:19:32.438Z,25.70
2018-08-19T13:21:58.514Z,25.90
2018-08-19T13:24:25.260Z,25.60
2018-08-19T13:26:51.963Z,25.70
2018-08-19T13:29:18.069Z,25.70
2018-08-19T13:31:44.069Z,25.70
2018-08-19T13:34:10.046Z,25.60
2018-08-19T13:36:35.993Z,25.40
2018-08-19T13:39:02.723Z,25.30
2018-08-19T13:41:28.673Z,25.30
2018-08-19T13:43:55.399Z,25.50
2018-08-19T13:46:22.119Z,25.40
2018-08-19T13:48:48.070Z,25.40
2018-08-19T13:51:14.789Z,25.00
2018-08-19T13:53:40.743Z,25.00
2018-08-19T13:56:06.736Z,25.00
2018-08-19T13:58:32.716Z,25.00
2018-08-19T14:00:58.704Z,25.00
2018-08-19T14:03:25.403Z,25.10
2018-08-19T14:05:51.380Z,25.00
2018-08-19T14:08:17.330Z,25.00
2018-08-19T14:10:43.328Z,24.90
2018-08-19T14:13:09.293Z,24.80
2018-08-19T14:15:35.245Z,24.80
2018-08-19T14:18:01.240Z,24.80
2018-08-19T14:20:27.268Z,24.70
2018-08-19T14:22:53.272Z,24.50
2018-08-19T14:25:19.243Z,24.30
2018-08-19T14:27:45.251Z,24.30
2018-08-19T14:30:11.319Z,24.30
2018-08-19T14:32:37.182Z,24.10
2018-08-19T14:35:03.173Z,24.10
2018-08-19T14:37:29.590Z,24.10
2018-08-19T14:39:56.158Z,24.10
2018-08-19T14:42:22.101Z,24.10
2018-08-19T14:44:48.875Z,24.00
2018-08-19T14:47:15.594Z,23.80
2018-08-19T14:49:41.559Z,23.80
2018-08-19T14:52:07.538Z,23.80
2018-08-19T14:54:33.482Z,23.70
2018-08-19T14:56:59.510Z,23.80
2018-08-19T14:59:25.502Z,23.70
2018-08-19T15:01:52.249Z,23.50
2018-08-19T15:04:18.180Z,23.60
2018-08-19T15:06:44.877Z,23.60
2018-08-19T15:09:10.865Z,23.60
2018-08-19T15:11:36.862Z,23.50
2018-08-19T15:14:02.836Z,23.40
2018-08-19T15:16:28.816Z,23.40
2018-08-19T15:18:54.791Z,23.40
2018-08-19T15:21:20.755Z,23.50
2018-08-19T15:23:46.716Z,23.40
2018-08-19T15:26:12.693Z,23.40
2018-08-19T15:28:38.693Z,23.20
2018-08-19T15:31:04.699Z,23.20
2018-08-19T15:33:30.673Z,23.20
2018-08-19T15:35:57.387Z,23.30
2018-08-19T15:38:23.671Z,23.30
2018-08-19T15:40:50.414Z,23.40
2018-08-19T15:43:16.289Z,23.20
2018-08-19T15:45:42.464Z,23.30
2018-08-19T15:48:08.458Z,23.20
2018-08-19T15:50:35.200Z,23.20
2018-08-19T15:53:01.989Z,23.30
2018-08-19T15:55:27.941Z,23.20
2018-08-19T15:57:53.940Z,23.30
2018-08-19T16:00:19.901Z,23.30
2018-08-19T16:02:46.648Z,23.40
2018-08-19T16:05:12.607Z,23.40
2018-08-19T16:07:38.575Z,23.20
2018-08-19T16:10:04.547Z,23.20
2018-08-19T16:12:30.575Z,23.20
2018-08-19T16:14:56.514Z,23.00
2018-08-19T16:17:22.468Z,23.00
2018-08-19T16:19:48.430Z,23.00
2018-08-19T16:22:14.391Z,23.00
2018-08-19T16:24:40.378Z,22.90
2018-08-19T16:27:06.350Z,22.90
2018-08-19T16:29:32.354Z,22.90
2018-08-19T16:31:58.320Z,22.80
2018-08-19T16:34:25.107Z,22.80
2018-08-19T16:36:51.081Z,22.80
2018-08-19T16:39:17.814Z,22.80
2018-08-19T16:41:43.796Z,22.80
2018-08-19T16:44:09.795Z,22.90
2018-08-19T16:46:35.789Z,22.80
2018-08-19T16:49:02.508Z,22.80
2018-08-19T16:51:28.488Z,22.80
2018-08-19T16:53:54.503Z,22.80
2018-08-19T16:56:20.502Z,22.80
2018-08-19T16:58:46.449Z,22.80
2018-08-19T17:01:13.173Z,22.70
2018-08-19T17:03:39.144Z,22.70
2018-08-19T17:06:05.161Z,22.70
2018-08-19T17:08:31.120Z,22.50
2018-08-19T17:10:57.115Z,22.50
2018-08-19T17:13:23.060Z,22.50
2018-08-19T17:15:49.008Z,22.50
2018-08-19T17:18:14.994Z,22.50
2018-08-19T17:20:40.949Z,22.60
2018-08-19T17:23:07.703Z,22.50
2018-08-19T17:25:34.421Z,22.40
2018-08-19T17:28:01.166Z,22.40
2018-08-19T17:30:27.131Z,22.40
2018-08-19T17:32:53.261Z,22.40
2018-08-19T17:35:19.820Z,22.30
2018-08-19T17:37:45.794Z,22.30
2018-08-19T17:40:12.492Z,22.30
2018-08-19T17:42:38.478Z,22.30
2018-08-19T17:45:04.445Z,22.30
2018-08-19T17:47:30.401Z,22.30
2018-08-19T17:49:57.119Z,22.30
2018-08-19T17:52:23.072Z,22.20
2018-08-19T17:54:49.066Z,22.20
2018-08-19T17:57:15.092Z,22.20
2018-08-19T17:59:41.134Z,22.20
2018-08-19T18:02:07.042Z,22.20
2018-08-19T18:04:33.785Z,22.10
2018-08-19T18:07:00.507Z,22.20
2018-08-19T18:09:26.539Z,22.10
2018-08-19T18:11:53.261Z,22.20
2018-08-19T18:14:19.252Z,22.20
2018-08-19T18:16:45.227Z,22.10
2018-08-19T18:19:11.221Z,22.10
2018-08-19T18:21:37.176Z,22.10
2018-08-19T18:24:03.127Z,22.00
2018-08-19T18:26:29.822Z,22.00
2018-08-19T18:28:55.782Z,22.00
2018-08-19T18:31:22.514Z,21.80
2018-08-19T18:33:49.202Z,21.80
2018-08-19T18:36:15.207Z,21.80
2018-08-19T18:38:41.177Z,21.80
2018-08-19T18:41:07.142Z,21.70
2018-08-19T18:43:33.855Z,21.60
2018-08-19T18:46:00.008Z,21.50
2018-08-19T18:48:25.870Z,21.50
2018-08-19T18:50:51.823Z,21.40
2018-08-19T18:53:17.812Z,21.50
2018-08-19T18:55:43.761Z,21.40
2018-08-19T18:58:09.745Z,21.30
2018-08-19T19:00:35.750Z,21.30
2018-08-19T19:03:01.749Z,21.30
2018-08-19T19:05:28.441Z,21.30
2018-08-19T19:07:54.460Z,21.20
2018-08-19T19:10:20.424Z,21.20
2018-08-19T19:12:46.380Z,21.20
2018-08-19T19:15:12.369Z,21.20
2018-08-19T19:17:38.320Z,21.10
2018-08-19T19:20:04.323Z,21.10
2018-08-19T19:22:30.285Z,21.10
2018-08-19T19:24:56.279Z,21.10
2018-08-19T19:27:22.978Z,21.10
2018-08-19T19:29:48.970Z,21.00
2018-08-19T19:32:14.922Z,21.00
2018-08-19T19:34:40.931Z,21.00
2018-08-19T19:37:06.899Z,21.00
2018-08-19T19:39:33.641Z,21.00
2018-08-19T19:42:00.354Z,21.00
2018-08-19T19:44:26.352Z,20.90
2018-08-19T19:46:52.329Z,21.00
2018-08-19T19:49:19.086Z,20.90
2018-08-19T19:51:45.060Z,20.90
2018-08-19T19:54:11.016Z,20.90
2018-08-19T19:56:37.003Z,20.90
2018-08-19T19:59:02.977Z,20.90
2018-08-19T20:01:29.699Z,20.90
2018-08-19T20:03:55.639Z,20.90
2018-08-19T20:06:22.360Z,20.90
2018-08-19T20:08:49.072Z,20.90
2018-08-19T20:11:15.144Z,20.80
2018-08-19T20:13:41.564Z,20.80
2018-08-19T20:16:08.114Z,20.80
2018-08-19T20:18:34.103Z,20.80
2018-08-19T20:21:00.094Z,20.80
2018-08-19T20:23:26.061Z,20.80
2018-08-19T20:25:52.774Z,20.70
2018-08-19T20:28:19.545Z,20.70
2018-08-19T20:30:46.263Z,20.70
2018-08-19T20:33:12.367Z,20.70
2018-08-19T20:35:38.358Z,20.60
2018-08-19T20:38:05.084Z,20.70
2018-08-19T20:40:31.188Z,20.70
2018-08-19T20:42:57.213Z,20.70
2018-08-19T20:45:23.968Z,20.70
2018-08-19T20:47:50.675Z,20.60
2018-08-19T20:50:16.682Z,20.60
2018-08-19T20:52:42.695Z,20.70
2018-08-19T20:55:08.677Z,20.70
2018-08-19T20:57:35.418Z,20.60
2018-08-19T21:00:02.177Z,20.60
2018-08-19T21:02:28.181Z,20.60
2018-08-19T21:04:54.895Z,20.50
2018-08-19T21:07:20.890Z,20.50
2018-08-19T21:09:46.993Z,20.50
2018-08-19T21:12:12.994Z,20.50
2018-08-19T21:14:39.731Z,20.40
2018-08-19T21:17:06.472Z,20.40
2018-08-19T21:19:32.429Z,20.40
2018-08-19T21:21:58.423Z,20.40
2018-08-19T21:24:25.106Z,20.40
2018-08-19T21:26:51.103Z,20.40
2018-08-19T21:29:17.799Z,20.40
2018-08-19T21:31:43.798Z,20.30
2018-08-19T21:34:09.740Z,20.30
2018-08-19T21:36:35.768Z,20.30
2018-08-19T21:39:01.762Z,20.30
2018-08-19T21:41:27.713Z,20.30
2018-08-19T21:43:53.760Z,20.30
2018-08-19T21:46:20.479Z,20.20
2018-08-19T21:48:46.472Z,20.20
2018-08-19T21:51:12.565Z,20.30
2018-08-19T21:53:38.636Z,20.20
2018-08-19T21:56:04.652Z,20.20
2018-08-19T21:58:30.785Z,20.20
2018-08-19T22:00:56.756Z,20.20
2018-08-19T22:03:22.999Z,20.20
2018-08-19T22:05:48.979Z,20.20
2018-08-19T22:08:14.961Z,20.20
2018-08-19T22:10:40.956Z,20.20
2018-08-19T22:13:07.737Z,20.20
2018-08-19T22:15:33.816Z,20.20
2018-08-19T22:17:59.815Z,20.20
2018-08-19T22:20:25.875Z,20.20
2018-08-19T22:22:52.654Z,20.20
2018-08-19T22:25:19.489Z,20.10
2018-08-19T22:27:46.218Z,20.10
2018-08-19T22:30:12.197Z,20.10
2018-08-19T22:32:38.192Z,20.10
2018-08-19T22:35:04.199Z,20.10
2018-08-19T22:37:30.889Z,20.10
2018-08-19T22:39:56.977Z,20.10
2018-08-19T22:42:22.858Z,20.10
2018-08-19T22:44:49.558Z,20.00
2018-08-19T22:47:15.555Z,20.00
2018-08-19T22:49:41.522Z,20.00
2018-08-19T22:52:07.559Z,19.90
2018-08-19T22:54:34.268Z,19.90
2018-08-19T22:57:00.275Z,19.90
2018-08-19T22:59:26.245Z,19.90
2018-08-19T23:01:52.976Z,19.80
2018-08-19T23:04:18.938Z,19.80
2018-08-19T23:06:44.905Z,19.80
2018-08-19T23:09:10.899Z,19.80
2018-08-19T23:11:36.896Z,19.90
2018-08-19T23:14:02.889Z,19.90
2018-08-19T23:16:28.868Z,19.90
2018-08-19T23:18:54.865Z,19.90
2018-08-19T23:21:20.872Z,19.70
2018-08-19T23:23:46.862Z,19.80
2018-08-19T23:26:12.843Z,19.80
2018-08-19T23:28:38.854Z,19.80
2018-08-19T23:31:05.559Z,19.80
2018-08-19T23:33:31.564Z,19.80
2018-08-19T23:35:57.541Z,19.70
2018-08-19T23:38:23.494Z,19.80
2018-08-19T23:40:49.473Z,19.80
2018-08-19T23:43:16.194Z,19.80
2018-08-19T23:45:42.202Z,19.70
2018-08-19T23:48:08.195Z,19.80
2018-08-19T23:50:34.185Z,19.80
2018-08-19T23:53:00.891Z,19.80
2018-08-19T23:55:26.895Z,19.70
2018-08-19T23:57:52.878Z,19.70
